Time;durP1;ratioP1;P1;durP2;ratioP2;P2;SDS_P1;SDS_P2;PMS_P1;PMS_P2;Temp;Humidity;BMP_temperature;BMP_pressure;BME280_temperature;BME280_humidity;BME280_pressure;Samples;Min_cycle;Max_cycle;Signal;HPM_P1;HPM_P2
2022/06/03 00:02:43;;;;;;;2.33;1.00;;;;;;;-148.56;100.00;61375.16;5060715;28;20678;-29
2022/06/03 00:05:27;;;;;;;1.50;1.10;;;;;;;-148.56;100.00;61375.16;5081990;28;20127;-32
2022/06/03 00:08:10;;;;;;;1.25;0.90;;;;;;;-148.56;100.00;61375.16;5083451;28;20034;-30
2022/06/03 00:11:17;;;;;;;1.52;1.00;;;;;;;-148.56;100.00;61375.16;5081811;28;20093;-32
2022/06/03 00:14:08;;;;;;;2.08;0.93;;;;;;;-148.56;100.00;61375.16;5061694;28;20056;-34
2022/06/03 00:16:52;;;;;;;2.10;1.27;;;;;;;-148.56;100.00;61375.16;5064806;28;20081;-33
2022/06/03 00:19:20;;;;;;;1.40;0.90;;;;;;;-148.56;100.00;61375.16;5051466;28;20307;-29
2022/06/03 00:22:23;;;;;;;1.15;1.02;;;;;;;-148.56;100.00;61375.16;5092852;28;20038;-34
2022/06/03 00:25:11;;;;;;;1.65;1.10;;;;;;;-148.56;100.00;61375.16;5085972;28;20110;-29
2022/06/03 00:27:52;;;;;;;1.15;1.00;;;;;;;-148.56;100.00;61375.16;5091832;28;20717;-32
2022/06/03 00:30:39;;;;;;;1.95;0.82;;;;;;;-148.56;100.00;61375.16;5087754;28;20047;-35
2022/06/03 00:33:23;;;;;;;1.52;0.80;;;;;;;-148.56;100.00;61375.16;5076395;28;20062;-30
2022/06/03 00:36:17;;;;;;;2.20;0.90;;;;;;;-148.56;100.00;61375.16;5086131;28;20394;-30
2022/06/03 00:38:47;;;;;;;2.25;1.10;;;;;;;-148.56;100.00;61375.16;5083983;28;20040;-35
2022/06/03 00:41:37;;;;;;;1.00;0.90;;;;;;;-148.56;100.00;61375.16;5063534;28;20020;-34
2022/06/03 00:44:21;;;;;;;1.45;1.10;;;;;;;-148.56;100.00;61375.16;5077944;28;20035;-31
2022/06/03 00:46:55;;;;;;;3.05;1.00;;;;;;;-148.56;100.00;61375.16;5092463;28;20114;-36
2022/06/03 00:49:33;;;;;;;2.55;1.00;;;;;;;-148.56;100.00;61375.16;5098931;28;20061;-33
2022/06/03 00:51:58;;;;;;;0.90;0.90;;;;;;;-148.56;100.00;61375.16;5090787;28;20024;-35
2022/06/03 00:54:46;;;;;;;1.83;0.85;;;;;;;-148.56;100.00;61375.16;5091516;28;20035;-30
2022/06/03 00:57:41;;;;;;;1.67;1.00;;;;;;;-148.56;100.00;61375.16;5069956;28;20035;-33
2022/06/03 01:00:09;;;;;;;1.35;0.85;;;;;;;-148.56;100.00;61375.16;5082492;28;20023;-31
2022/06/03 01:03:08;;;;;;;1.20;1.10;;;;;;;-148.56;100.00;61375.16;5082430;28;20026;-31
2022/06/03 01:06:02;;;;;;;1.88;0.98;;;;;;;-148.56;100.00;61375.16;5062870;28;20019;-30
2022/06/03 01:08:57;;;;;;;1.25;0.75;;;;;;;-148.56;100.00;61375.16;5092306;28;20031;-32
2022/06/03 01:11:44;;;;;;;1.38;0.80;;;;;;;-148.56;100.00;61375.16;5089440;28;20036;-30
2022/06/03 01:14:23;;;;;;;1.02;0.93;;;;;;;-148.56;100.00;61375.16;5068892;28;20023;-31
2022/06/03 01:17:21;;;;;;;1.55;1.00;;;;;;;-148.56;100.00;61375.16;5073389;28;20024;-31
2022/06/03 01:20:02;;;;;;;0.80;0.75;;;;;;;-148.56;100.00;61375.16;5082574;28;20118;-31
2022/06/03 01:22:46;;;;;;;1.70;0.90;;;;;;;-148.56;100.00;61375.16;5070605;28;20031;-34
2022/06/03 01:25:14;;;;;;;1.13;0.85;;;;;;;-148.56;100.00;61375.16;5087225;28;20036;-30
2022/06/03 01:28:04;;;;;;;2.78;0.85;;;;;;;-148.56;100.00;61375.16;5082355;28;20123;-31
2022/06/03 01:30:35;;;;;;;2.15;0.80;;;;;;;-148.56;100.00;61375.16;5087175;28;21092;-33
2022/06/03 01:33:22;;;;;;;1.45;0.95;;;;;;;-148.56;100.00;61375.16;5090836;28;20040;-32
2022/06/03 01:36:03;;;;;;;1.00;0.90;;;;;;;-148.56;100.00;61375.16;5087225;28;20071;-32
2022/06/03 01:38:36;;;;;;;1.00;0.80;;;;;;;-148.56;100.00;61375.16;5070148;28;20035;-31
2022/06/03 01:41:18;;;;;;;0.82;0.82;;;;;;;-148.56;100.00;61375.16;5086169;28;20036;-31
2022/06/03 01:44:06;;;;;;;1.27;0.90;;;;;;;-148.56;100.00;61375.16;5070209;28;20118;-30
2022/06/03 01:46:52;;;;;;;3.13;0.80;;;;;;;-148.56;100.00;61375.16;5075875;28;20039;-29
2022/06/03 01:49:42;;;;;;;1.25;0.93;;;;;;;-148.56;100.00;61375.16;5043440;28;20827;-27
2022/06/03 01:52:13;;;;;;;1.30;1.13;;;;;;;-148.56;100.00;61375.16;5090649;28;20043;-31
2022/06/03 01:54:47;;;;;;;0.73;0.70;;;;;;;-148.56;100.00;61375.16;5092601;28;20032;-29
2022/06/03 01:57:52;;;;;;;1.70;1.00;;;;;;;-148.56;100.00;61375.16;5087422;28;20039;-30
2022/06/03 02:00:26;;;;;;;1.30;0.95;;;;;;;-148.56;100.00;61375.16;5037000;28;20123;-29
2022/06/03 02:02:58;;;;;;;2.17;0.98;;;;;;;-148.56;100.00;61375.16;5087851;28;20471;-30
2022/06/03 02:05:57;;;;;;;1.00;0.73;;;;;;;-148.56;100.00;61375.16;5092057;28;20074;-30
2022/06/03 02:09:00;;;;;;;0.70;0.63;;;;;;;-148.56;100.00;61375.16;5064337;28;20510;-31
2022/06/03 02:12:10;;;;;;;1.02;0.80;;;;;;;-148.56;100.00;61375.16;5083865;28;20036;-32
2022/06/03 02:14:38;;;;;;;1.20;0.90;;;;;;;-148.56;100.00;61375.16;5081206;28;20043;-30
2022/06/03 02:17:17;;;;;;;1.65;0.90;;;;;;;-148.56;100.00;61375.16;5089923;28;20084;-29
2022/06/03 02:20:02;;;;;;;0.90;0.70;;;;;;;-148.56;100.00;61375.16;5088594;28;20038;-37
2022/06/03 02:23:00;;;;;;;2.25;0.77;;;;;;;-148.56;100.00;61375.16;5076516;28;20115;-32
2022/06/03 02:25:54;;;;;;;1.63;0.75;;;;;;;-148.56;100.00;61375.16;5046708;28;20100;-31
2022/06/03 02:28:28;;;;;;;0.93;0.80;;;;;;;-148.56;100.00;61375.16;5068756;28;20612;-31
2022/06/03 02:31:35;;;;;;;0.93;0.70;;;;;;;-148.56;100.00;61375.16;5066654;28;20115;-31
2022/06/03 02:34:36;;;;;;;1.48;0.80;;;;;;;-148.56;100.00;61375.16;5086932;28;20115;-30
2022/06/03 02:37:03;;;;;;;1.20;0.75;;;;;;;-148.56;100.00;61375.16;5024066;28;20068;-31
2022/06/03 02:40:11;;;;;;;3.67;1.00;;;;;;;-148.56;100.00;61375.16;5077572;28;20122;-33
2022/06/03 02:42:55;;;;;;;2.92;1.17;;;;;;;-148.56;100.00;61375.16;5060806;28;20058;-28
2022/06/03 02:45:40;;;;;;;1.70;0.82;;;;;;;-148.56;100.00;61375.16;5085505;28;20046;-28
2022/06/03 02:48:41;;;;;;;0.82;0.82;;;;;;;-148.56;100.00;61375.16;5091107;28;20074;-28
2022/06/03 02:51:38;;;;;;;2.20;0.63;;;;;;;-148.56;100.00;61375.16;5063626;28;20040;-36
2022/06/03 02:54:34;;;;;;;0.90;0.70;;;;;;;-148.56;100.00;61375.16;5089018;28;20711;-30
2022/06/03 02:57:27;;;;;;;1.33;0.77;;;;;;;-148.56;100.00;61375.16;5085688;28;20118;-30
2022/06/03 03:00:02;;;;;;;0.98;0.65;;;;;;;-148.56;100.00;61375.16;5090796;28;20596;-29
2022/06/03 03:03:05;;;;;;;0.70;0.70;;;;;;;-148.56;100.00;61375.16;5070415;28;20038;-29
2022/06/03 03:06:00;;;;;;;1.15;0.80;;;;;;;-148.56;100.00;61375.16;5088079;28;20397;-29
2022/06/03 03:08:54;;;;;;;2.35;0.82;;;;;;;-148.56;100.00;61375.16;5086523;28;20036;-34
2022/06/03 03:11:41;;;;;;;1.30;0.63;;;;;;;-148.56;100.00;61375.16;5089427;28;20028;-30
2022/06/03 03:14:40;;;;;;;1.42;0.70;;;;;;;-148.56;100.00;61375.16;5088190;28;20028;-36
2022/06/03 03:17:27;;;;;;;1.70;0.82;;;;;;;-148.56;100.00;61375.16;5088674;28;20689;-35
2022/06/03 03:20:11;;;;;;;0.57;0.57;;;;;;;-148.56;100.00;61375.16;5092223;28;20036;-31
2022/06/03 03:23:16;;;;;;;0.88;0.70;;;;;;;-148.56;100.00;61375.16;5075712;28;20047;-28
2022/06/03 03:25:53;;;;;;;1.17;0.73;;;;;;;-148.56;100.00;61375.16;5090266;28;20054;-30
2022/06/03 03:28:50;;;;;;;0.88;0.60;;;;;;;-148.56;100.00;61375.16;5092866;28;20027;-30
2022/06/03 03:31:34;;;;;;;3.08;0.95;;;;;;;-148.56;100.00;61375.16;5094987;28;20028;-29
2022/06/03 03:34:37;;;;;;;0.95;0.70;;;;;;;-148.56;100.00;61375.16;5092313;28;20505;-35
2022/06/03 03:37:27;;;;;;;1.17;0.60;;;;;;;-148.56;100.00;61375.16;5093645;28;20057;-30
2022/06/03 03:40:23;;;;;;;1.55;0.73;;;;;;;-148.56;100.00;61375.16;5094077;28;20583;-29
2022/06/03 03:42:55;;;;;;;0.60;0.60;;;;;;;-148.56;100.00;61375.16;5094075;28;20028;-30
2022/06/03 03:45:38;;;;;;;0.82;0.60;;;;;;;-148.56;100.00;61375.16;5074280;28;20743;-29
2022/06/03 03:48:10;;;;;;;1.10;0.75;;;;;;;-148.56;100.00;61375.16;5096342;28;20081;-33
2022/06/03 03:50:58;;;;;;;1.00;0.70;;;;;;;-148.56;100.00;61375.16;5092599;28;20041;-31
2022/06/03 03:53:54;;;;;;;2.45;0.70;;;;;;;-148.56;100.00;61375.16;5061674;28;20073;-32
2022/06/03 03:56:46;;;;;;;1.25;0.75;;;;;;;-148.56;100.00;61375.16;5089531;28;20028;-29
2022/06/03 03:59:36;;;;;;;0.75;0.75;;;;;;;-148.56;100.00;61375.16;5090145;28;20047;-33
2022/06/03 04:02:29;;;;;;;0.90;0.45;;;;;;;-148.56;100.00;61375.16;5091947;28;20038;-30
2022/06/03 04:05:01;;;;;;;0.85;0.57;;;;;;;-148.56;100.00;61375.16;5075555;28;20034;-34
2022/06/03 04:07:56;;;;;;;0.45;0.45;;;;;;;-148.56;100.00;61375.16;5094127;28;20620;-30
2022/06/03 04:10:22;;;;;;;1.48;0.50;;;;;;;-148.56;100.00;61375.16;5091462;28;20058;-30
2022/06/03 04:13:32;;;;;;;1.67;0.50;;;;;;;-148.56;100.00;61375.16;5092976;28;20456;-34
2022/06/03 04:16:35;;;;;;;0.40;0.40;;;;;;;-148.56;100.00;61375.16;5075574;28;20055;-29
2022/06/03 04:19:20;;;;;;;0.88;0.60;;;;;;;-148.56;100.00;61375.16;5076408;28;20631;-37
2022/06/03 04:22:23;;;;;;;0.90;0.50;;;;;;;-148.56;100.00;61375.16;5078076;28;20031;-30
2022/06/03 04:24:58;;;;;;;1.02;0.50;;;;;;;-148.56;100.00;61375.16;5090620;28;20039;-32
2022/06/03 04:27:45;;;;;;;1.08;0.77;;;;;;;-148.56;100.00;61375.16;5094413;28;20023;-32
2022/06/03 04:30:32;;;;;;;1.00;0.80;;;;;;;-148.56;100.00;61375.16;5093224;28;20100;-29
2022/06/03 04:33:35;;;;;;;0.90;0.50;;;;;;;-148.56;100.00;61375.16;5085364;28;20624;-33
2022/06/03 04:36:23;;;;;;;0.82;0.45;;;;;;;-148.56;100.00;61375.16;5087173;28;20043;-30
2022/06/03 04:39:03;;;;;;;0.82;0.57;;;;;;;-148.56;100.00;61375.16;5087211;28;20054;-31
2022/06/03 04:42:06;;;;;;;0.60;0.50;;;;;;;-148.56;100.00;61375.16;5091856;28;20615;-28
2022/06/03 04:44:59;;;;;;;0.52;0.50;;;;;;;-148.56;100.00;61375.16;5090237;28;20514;-29
2022/06/03 04:47:27;;;;;;;0.40;0.40;;;;;;;-148.56;100.00;61375.16;5095527;28;20035;-33
2022/06/03 04:50:30;;;;;;;2.60;0.57;;;;;;;-148.56;100.00;61375.16;5096193;28;20126;-30
2022/06/03 04:53:04;;;;;;;1.05;0.50;;;;;;;-148.56;100.00;61375.16;5084299;28;20664;-31
2022/06/03 04:56:07;;;;;;;0.93;0.60;;;;;;;-148.56;100.00;61375.16;5072837;28;20710;-35
2022/06/03 04:58:51;;;;;;;0.50;0.50;;;;;;;-148.56;100.00;61375.16;5087523;28;20038;-32
2022/06/03 05:01:41;;;;;;;0.52;0.52;;;;;;;-148.56;100.00;61375.16;5093663;28;20030;-32
2022/06/03 05:04:21;;;;;;;0.52;0.52;;;;;;;-148.56;100.00;61375.16;5093036;28;20691;-29
2022/06/03 05:07:08;;;;;;;0.57;0.50;;;;;;;-148.56;100.00;61375.16;5093633;28;20035;-30
2022/06/03 05:10:11;;;;;;;1.00;0.70;;;;;;;-148.56;100.00;61375.16;5094805;28;20059;-32
2022/06/03 05:13:11;;;;;;;1.92;0.60;;;;;;;-148.56;100.00;61375.16;5092169;28;20114;-30
2022/06/03 05:16:06;;;;;;;0.85;0.60;;;;;;;-148.56;100.00;61375.16;5075924;28;20100;-31
2022/06/03 05:19:19;;;;;;;0.68;0.38;;;;;;;-148.56;100.00;61375.16;5082863;28;20118;-30
2022/06/03 05:22:05;;;;;;;0.63;0.50;;;;;;;-148.56;100.00;61375.16;5093203;28;20027;-30
2022/06/03 05:24:49;;;;;;;1.92;0.65;;;;;;;-148.56;100.00;61375.16;5090844;28;20038;-29
2022/06/03 05:27:27;;;;;;;1.40;0.60;;;;;;;-148.56;100.00;61375.16;5086674;28;20066;-29
2022/06/03 05:30:17;;;;;;;1.30;0.60;;;;;;;-148.56;100.00;61375.16;5085644;28;20126;-28
2022/06/03 05:32:58;;;;;;;2.38;0.68;;;;;;;-148.56;100.00;61375.16;5096617;28;20084;-29
2022/06/03 05:35:33;;;;;;;1.20;0.70;;;;;;;-148.56;100.00;61375.16;5087906;28;20566;-29
2022/06/03 05:38:16;;;;;;;1.80;0.60;;;;;;;-148.56;100.00;61375.16;5086612;28;20048;-29
2022/06/03 05:41:07;;;;;;;2.58;0.60;;;;;;;-148.56;100.00;61375.16;5050984;28;20058;-30
2022/06/03 05:43:51;;;;;;;1.67;0.60;;;;;;;-148.56;100.00;61375.16;5093560;28;20039;-29
2022/06/03 05:46:29;;;;;;;0.95;0.52;;;;;;;-148.56;100.00;61375.16;5095358;28;20035;-30
2022/06/03 05:49:15;;;;;;;0.80;0.60;;;;;;;-148.56;100.00;61375.16;5093053;28;20048;-32
2022/06/03 05:51:47;;;;;;;0.60;0.57;;;;;;;-148.56;100.00;61375.16;5070872;28;20043;-29
2022/06/03 05:54:31;;;;;;;0.60;0.60;;;;;;;-148.56;100.00;61375.16;5095024;28;20138;-31
2022/06/03 05:57:14;;;;;;;0.80;0.60;;;;;;;-148.56;100.00;61375.16;5090631;28;20040;-30
2022/06/03 05:59:58;;;;;;;1.02;0.50;;;;;;;-148.56;100.00;61375.16;5091470;28;20032;-30
2022/06/03 06:02:26;;;;;;;0.40;0.40;;;;;;;-148.56;100.00;61375.16;5093338;28;20087;-29
2022/06/03 06:05:03;;;;;;;0.77;0.52;;;;;;;-148.56;100.00;61375.16;5091723;28;20027;-33
2022/06/03 06:07:40;;;;;;;0.50;0.50;;;;;;;-148.56;100.00;61375.16;5086602;28;20062;-33
2022/06/03 06:10:39;;;;;;;0.63;0.50;;;;;;;-148.56;100.00;61375.16;5065937;28;20032;-31
2022/06/03 06:13:28;;;;;;;0.98;0.47;;;;;;;-148.56;100.00;61375.16;5085493;28;20135;-29
2022/06/03 06:16:07;;;;;;;0.88;0.50;;;;;;;-148.56;100.00;61375.16;5084539;28;20031;-31
2022/06/03 06:19:04;;;;;;;0.50;0.50;;;;;;;-148.56;100.00;61375.16;5082978;28;20042;-31
2022/06/03 06:21:41;;;;;;;1.08;0.50;;;;;;;-148.56;100.00;61375.16;5091929;28;20024;-30
2022/06/03 06:24:13;;;;;;;1.48;0.80;;;;;;;-148.56;100.00;61375.16;5088128;28;20023;-29
2022/06/03 06:26:44;;;;;;;1.02;0.50;;;;;;;-148.56;100.00;61375.16;5091035;28;20076;-31
2022/06/03 06:29:27;;;;;;;0.50;0.50;;;;;;;-148.56;100.00;61375.16;5088448;28;20081;-31
2022/06/03 06:32:08;;;;;;;0.57;0.57;;;;;;;-148.56;100.00;61375.16;5084078;28;20035;-29
2022/06/03 06:34:51;;;;;;;0.80;0.50;;;;;;;-148.56;100.00;61375.16;5090961;28;20753;-29
2022/06/03 06:37:38;;;;;;;1.30;0.68;;;;;;;-148.56;100.00;61375.16;5086470;28;20036;-28
2022/06/03 06:40:03;;;;;;;13.38;1.80;;;;;;;-148.56;100.00;61375.16;5084954;28;20074;-29
2022/06/03 06:42:48;;;;;;;20.30;1.10;;;;;;;-148.56;100.00;61375.16;5080769;28;23606;-35
2022/06/03 06:45:40;;;;;;;0.93;0.50;;;;;;;-148.56;100.00;61375.16;5087723;28;20387;-32
2022/06/03 06:48:51;;;;;;;3.63;0.60;;;;;;;-148.56;100.00;61375.16;5083939;28;20061;-31
2022/06/03 06:51:46;;;;;;;18.00;2.90;;;;;;;-148.56;100.00;61375.16;4958563;28;20160;-33
2022/06/03 06:54:27;;;;;;;11.70;2.50;;;;;;;-148.56;100.00;61375.16;4956133;28;20049;-30
2022/06/03 06:56:57;;;;;;;9.27;2.60;;;;;;;-148.56;100.00;61375.16;5062082;28;20524;-31
2022/06/03 06:59:47;;;;;;;4.53;1.80;;;;;;;-148.56;100.00;61375.16;5059886;28;20049;-30
2022/06/03 07:02:17;;;;;;;3.15;1.63;;;;;;;-148.56;100.00;61375.16;5079360;27;20086;-33
2022/06/03 07:04:46;;;;;;;8.20;1.70;;;;;;;-148.56;100.00;61375.16;5079260;27;20048;-30
2022/06/03 07:07:17;;;;;;;4.53;1.45;;;;;;;-148.56;100.00;61375.16;5103104;27;20039;-30
2022/06/03 07:10:15;;;;;;;4.00;1.50;;;;;;;-148.56;100.00;61375.16;5085236;27;20059;-37
2022/06/03 07:12:51;;;;;;;5.78;1.45;;;;;;;-148.56;100.00;61375.16;5084662;28;20035;-29
2022/06/03 07:15:27;;;;;;;9.80;1.75;;;;;;;-148.56;100.00;61375.16;5106066;27;20142;-31
2022/06/03 07:21:41;;;;;;;3.47;1.70;;;;;;;-148.56;100.00;61375.16;5107733;28;20172;-29
2022/06/03 07:24:15;;;;;;;2.28;1.65;;;;;;;-148.56;100.00;61375.16;5023304;28;20037;-29
2022/06/03 07:26:44;;;;;;;6.32;2.00;;;;;;;-148.56;100.00;61375.16;5080085;28;20581;-34
2022/06/03 07:29:19;;;;;;;4.25;1.65;;;;;;;-148.56;100.00;61375.16;5065460;28;20031;-36
2022/06/03 07:31:47;;;;;;;2.42;1.50;;;;;;;-148.56;100.00;61375.16;5085448;27;20019;-30
2022/06/03 07:34:18;;;;;;;3.67;1.88;;;;;;;-148.56;100.00;61375.16;5089256;27;20083;-31
2022/06/03 07:36:46;;;;;;;3.17;1.70;;;;;;;-148.56;100.00;61375.16;5111540;27;21191;-32
2022/06/03 07:39:33;;;;;;;3.30;1.52;;;;;;;-148.56;100.00;61375.16;5079604;27;20586;-30
2022/06/03 07:42:11;;;;;;;4.30;2.30;;;;;;;-148.56;100.00;61375.16;5101344;27;20069;-30
2022/06/03 07:45:17;;;;;;;5.55;2.42;;;;;;;-148.56;100.00;61375.16;5105492;27;20019;-33
2022/06/03 07:47:43;;;;;;;5.05;2.60;;;;;;;-148.56;100.00;61375.16;5088409;28;20079;-31
2022/06/03 07:50:15;;;;;;;9.45;2.72;;;;;;;-148.56;100.00;61375.16;5105138;27;20019;-33
2022/06/03 07:53:09;;;;;;;5.65;2.60;;;;;;;-148.56;100.00;61375.16;5065870;28;20039;-29
2022/06/03 07:55:35;;;;;;;5.85;2.53;;;;;;;-148.56;100.00;61375.16;5088115;28;20027;-32
2022/06/03 07:58:05;;;;;;;5.88;2.70;;;;;;;-148.56;100.00;61375.16;5090414;27;20023;-34
2022/06/03 08:00:34;;;;;;;3.58;2.50;;;;;;;-148.56;100.00;61375.16;5104235;27;20025;-30
2022/06/03 08:03:19;;;;;;;5.05;2.40;;;;;;;-148.56;100.00;61375.16;5088431;28;20027;-29
2022/06/03 08:05:47;;;;;;;4.45;2.55;;;;;;;-148.56;100.00;61375.16;5100326;27;20073;-31
2022/06/03 08:11:00;;;;;;;4.40;2.70;;;;;;;-148.56;100.00;61375.16;5103761;27;20087;-33
2022/06/03 08:13:46;;;;;;;5.95;2.60;;;;;;;-148.56;100.00;61375.16;5105080;27;20046;-29
2022/06/03 08:16:29;;;;;;;4.30;2.42;;;;;;;-148.56;100.00;61375.16;5100791;27;20038;-29
2022/06/03 08:18:57;;;;;;;4.05;2.60;;;;;;;-148.56;100.00;61375.16;5081993;28;21004;-32
2022/06/03 08:21:36;;;;;;;4.82;2.45;;;;;;;-148.56;100.00;61375.16;5065370;27;20706;-32
2022/06/03 08:24:01;;;;;;;4.13;2.60;;;;;;;-148.56;100.00;61375.16;5078397;27;20031;-30
2022/06/03 08:26:27;;;;;;;5.45;2.53;;;;;;;-148.56;100.00;61375.16;5084935;27;20382;-31
2022/06/03 08:29:08;;;;;;;5.70;2.45;;;;;;;-148.56;100.00;61375.16;5082492;28;20023;-33
2022/06/03 08:31:33;;;;;;;3.80;2.45;;;;;;;-148.56;100.00;61375.16;5102192;27;20031;-30
2022/06/03 08:33:59;;;;;;;5.38;2.22;;;;;;;-148.56;100.00;61375.16;5068002;28;20096;-32
2022/06/03 08:36:26;;;;;;;4.05;2.50;;;;;;;-148.56;100.00;61375.16;5066480;27;20073;-32
2022/06/03 08:38:57;;;;;;;6.68;2.55;;;;;;;-148.56;100.00;61375.16;5077067;27;20037;-30
2022/06/03 08:41:29;;;;;;;4.78;2.28;;;;;;;-148.56;100.00;61375.16;5081945;27;20030;-30
2022/06/03 08:44:08;;;;;;;8.77;2.42;;;;;;;-148.56;100.00;61375.16;5073308;27;20027;-33
2022/06/03 08:46:51;;;;;;;3.30;2.10;;;;;;;-148.56;100.00;61375.16;5099680;27;20053;-31
2022/06/03 08:49:23;;;;;;;4.13;2.20;;;;;;;-148.56;100.00;61375.16;5088613;27;20033;-31
2022/06/03 08:52:00;;;;;;;3.97;2.15;;;;;;;-148.56;100.00;61375.16;5099681;28;20052;-31
2022/06/03 08:54:28;;;;;;;5.20;2.10;;;;;;;-148.56;100.00;61375.16;5088011;28;20027;-32
2022/06/03 08:56:56;;;;;;;4.25;2.20;;;;;;;-148.56;100.00;61375.16;5096498;27;20035;-30
2022/06/03 08:59:40;;;;;;;6.28;2.25;;;;;;;-148.56;100.00;61375.16;5075152;27;20032;-33
2022/06/03 09:02:11;;;;;;;7.22;2.53;;;;;;;-148.56;100.00;61375.16;5089768;28;20035;-34
2022/06/03 09:04:53;;;;;;;6.78;2.60;;;;;;;-148.56;100.00;61375.16;5077499;28;20026;-33
2022/06/03 09:07:25;;;;;;;3.88;2.38;;;;;;;-148.56;100.00;61375.16;5085459;28;20030;-32
2022/06/03 09:09:52;;;;;;;5.43;2.20;;;;;;;-148.56;100.00;61375.16;5080971;27;20053;-32
2022/06/03 09:12:28;;;;;;;5.40;2.60;;;;;;;-148.56;100.00;61375.16;5096589;27;20835;-31
2022/06/03 09:14:54;;;;;;;7.35;2.70;;;;;;;-148.56;100.00;61375.16;5084177;28;20023;-31
2022/06/03 09:17:53;;;;;;;4.95;2.50;;;;;;;-148.56;100.00;61375.16;5087811;28;20715;-31
2022/06/03 09:20:39;;;;;;;4.45;2.40;;;;;;;-148.56;100.00;61375.16;5082319;28;20023;-32
2022/06/03 09:23:06;;;;;;;6.78;2.72;;;;;;;-148.56;100.00;61375.16;5090348;28;20037;-30
2022/06/03 09:25:31;;;;;;;10.70;3.25;;;;;;;-148.56;100.00;61375.16;5096631;28;20050;-37
2022/06/03 09:27:58;;;;;;;19.25;4.65;;;;;;;-148.56;100.00;61375.16;5115042;28;20039;-31
2022/06/03 09:30:31;;;;;;;30.80;5.70;;;;;;;-148.56;100.00;61375.16;5117351;27;20022;-31
2022/06/03 09:32:56;;;;;;;21.90;5.47;;;;;;;-148.56;100.00;61375.16;5098696;28;20637;-30
2022/06/03 09:35:23;;;;;;;26.13;5.72;;;;;;;-148.56;100.00;61375.16;5115698;28;20038;-33
2022/06/03 09:37:51;;;;;;;23.85;6.10;;;;;;;-148.56;100.00;61375.16;5119574;28;20129;-34
2022/06/03 09:40:22;;;;;;;20.70;5.35;;;;;;;-148.56;100.00;61375.16;5114936;28;20020;-31
2022/06/03 09:43:08;;;;;;;18.80;5.05;;;;;;;-148.56;100.00;61375.16;5097888;28;20038;-31
2022/06/03 09:45:34;;;;;;;14.68;4.68;;;;;;;-148.56;100.00;61375.16;5115988;27;20046;-29
2022/06/03 09:47:59;;;;;;;16.83;5.60;;;;;;;-148.56;100.00;61375.16;5117336;28;20552;-31
2022/06/03 09:50:25;;;;;;;22.02;5.50;;;;;;;-148.56;100.00;61375.16;5099029;28;20039;-30
2022/06/03 09:53:00;;;;;;;18.20;5.03;;;;;;;-148.56;100.00;61375.16;5118167;28;20027;-31
2022/06/03 09:55:36;;;;;;;15.80;5.03;;;;;;;-148.56;100.00;61375.16;5119735;28;20133;-31
2022/06/03 09:58:02;;;;;;;12.27;4.68;;;;;;;-148.56;100.00;61375.16;5118292;28;20050;-30
2022/06/03 10:00:30;;;;;;;15.02;4.75;;;;;;;-148.56;100.00;61375.16;5090122;28;20996;-30
2022/06/03 10:02:56;;;;;;;16.95;4.32;;;;;;;-148.56;100.00;61375.16;5083356;28;20046;-32
2022/06/03 10:05:21;;;;;;;12.13;4.32;;;;;;;-148.56;100.00;61375.16;5110805;28;20023;-31
2022/06/03 10:07:56;;;;;;;15.05;4.50;;;;;;;-148.56;100.00;61375.16;5107013;28;20031;-30
2022/06/03 10:13:06;;;;;;;11.85;4.15;;;;;;;-148.56;100.00;61375.16;5090176;27;20038;-33
2022/06/03 10:15:40;;;;;;;12.82;4.40;;;;;;;-148.56;100.00;61375.16;5086325;28;20165;-30
2022/06/03 10:18:12;;;;;;;14.73;4.40;;;;;;;-148.56;100.00;61375.16;5084871;27;20062;-31
2022/06/03 10:20:37;;;;;;;12.48;4.70;;;;;;;-148.56;100.00;61375.16;5111030;27;20829;-32
2022/06/03 10:23:04;;;;;;;11.35;3.72;;;;;;;-148.56;100.00;61375.16;5110965;27;20071;-31
2022/06/03 10:25:29;;;;;;;10.77;4.20;;;;;;;-148.56;100.00;61375.16;5113386;28;20046;-33
2022/06/03 10:27:55;;;;;;;9.40;3.83;;;;;;;-148.56;100.00;61375.16;5108391;27;20127;-29
2022/06/03 10:30:28;;;;;;;11.10;4.03;;;;;;;-148.56;100.00;61375.16;5081475;28;20027;-33
2022/06/03 10:32:54;;;;;;;11.80;4.15;;;;;;;-148.56;100.00;61375.16;5102453;27;20038;-31
2022/06/03 10:35:25;;;;;;;11.30;4.40;;;;;;;-148.56;100.00;61375.16;5100000;27;20035;-31
2022/06/03 10:37:54;;;;;;;;;;;;;;;-148.56;100.00;61375.16;5105904;27;20023;-31
2022/06/03 10:40:21;;;;;;;10.25;3.80;;;;;;;-148.56;100.00;61375.16;5114377;27;19923;-31
2022/06/03 10:42:49;;;;;;;10.73;4.03;;;;;;;-148.56;100.00;61375.16;5118202;28;20027;-34
2022/06/03 10:45:14;;;;;;;7.78;3.28;;;;;;;-148.56;100.00;61375.16;5118818;28;20034;-29
2022/06/03 10:47:41;;;;;;;14.95;3.60;;;;;;;-148.56;100.00;61375.16;5120612;27;20477;-33
2022/06/03 10:50:23;;;;;;;8.38;3.20;;;;;;;-148.56;100.00;61375.16;5118229;28;20059;-29
2022/06/03 11:01:32;;;;;;;8.15;2.90;;;;;;;-148.56;100.00;61375.16;5122138;28;20060;-31
2022/06/03 11:03:58;;;;;;;7.97;2.97;;;;;;;-148.56;100.00;61375.16;5119422;28;20084;-34
2022/06/03 11:06:25;;;;;;;9.95;3.30;;;;;;;-148.56;100.00;61375.16;5103830;27;20557;-34
2022/06/03 11:08:58;;;;;;;6.80;3.05;;;;;;;-148.56;100.00;61375.16;5110929;27;20023;-28
2022/06/03 11:11:42;;;;;;;11.48;3.28;;;;;;;-148.56;100.00;61375.16;5094941;28;20061;-29
2022/06/03 11:14:27;;;;;;;15.20;3.22;;;;;;;-148.56;100.00;61375.16;5113707;28;20059;-30
2022/06/03 11:17:08;;;;;;;6.93;3.08;;;;;;;-148.56;100.00;61375.16;5110738;27;20114;-31
2022/06/03 11:19:44;;;;;;;7.75;3.15;;;;;;;-148.56;100.00;61375.16;5118767;27;20038;-29
2022/06/03 11:22:31;;;;;;;7.00;3.15;;;;;;;-148.56;100.00;61375.16;5091888;28;20068;-28
2022/06/03 11:25:15;;;;;;;5.85;2.70;;;;;;;-148.56;100.00;61375.16;5117509;28;20024;-32
2022/06/03 11:27:51;;;;;;;4.82;2.60;;;;;;;-148.56;100.00;61375.16;5117050;27;20031;-31
2022/06/03 11:31:01;;;;;;;6.05;2.72;;;;;;;-148.56;100.00;61375.16;5106106;27;20459;-39
2022/06/03 11:33:37;;;;;;;6.88;2.63;;;;;;;-148.56;100.00;61375.16;5001406;28;20483;-32
2022/06/03 11:36:10;;;;;;;7.78;3.03;;;;;;;-148.56;100.00;61375.16;5001784;28;20045;-33
2022/06/03 11:38:45;;;;;;;7.70;3.00;;;;;;;-148.56;100.00;61375.16;5052574;28;20140;-32
2022/06/03 11:41:44;;;;;;;7.20;2.80;;;;;;;-148.56;100.00;61375.16;5087903;27;20161;-33
2022/06/03 11:44:13;;;;;;;5.53;2.60;;;;;;;-148.56;100.00;61375.16;5100490;27;20073;-30
2022/06/03 11:46:48;;;;;;;6.65;2.42;;;;;;;-148.56;100.00;61375.16;5088603;28;20026;-32
2022/06/03 11:49:17;;;;;;;5.82;2.60;;;;;;;-148.56;100.00;61375.16;5107131;27;20027;-31
2022/06/03 11:51:42;;;;;;;4.93;2.53;;;;;;;-148.56;100.00;61375.16;5078416;28;20031;-32
2022/06/03 11:54:11;;;;;;;5.13;2.28;;;;;;;-148.56;100.00;61375.16;5102666;27;20367;-30
2022/06/03 11:56:36;;;;;;;5.30;2.75;;;;;;;-148.56;100.00;61375.16;5103450;27;20539;-31
2022/06/03 11:59:10;;;;;;;5.82;2.63;;;;;;;-148.56;100.00;61375.16;5103168;27;20028;-30
2022/06/03 12:01:50;;;;;;;6.50;2.40;;;;;;;-148.56;100.00;61375.16;5096529;27;20031;-31
2022/06/03 12:04:28;;;;;;;6.38;2.60;;;;;;;-148.56;100.00;61375.16;5106057;27;20031;-30
2022/06/03 12:07:17;;;;;;;8.80;2.70;;;;;;;-148.56;100.00;61375.16;5103389;27;20034;-35
2022/06/03 12:09:50;;;;;;;8.68;2.47;;;;;;;-148.56;100.00;61375.16;5086335;27;20027;-31
2022/06/03 12:15:35;;;;;;;4.70;2.35;;;;;;;-148.56;100.00;61375.16;5091629;27;20034;-30
2022/06/03 12:18:06;;;;;;;6.53;2.65;;;;;;;-148.56;100.00;61375.16;5095109;28;20802;-32
2022/06/03 12:20:47;;;;;;;5.07;2.20;;;;;;;-148.56;100.00;61375.16;5105178;27;20023;-30
2022/06/03 12:23:12;;;;;;;4.63;2.28;;;;;;;-148.56;100.00;61375.16;5106970;28;20571;-31
2022/06/03 12:25:43;;;;;;;4.88;2.50;;;;;;;-148.56;100.00;61375.16;5101376;28;20099;-31
2022/06/03 12:28:29;;;;;;;5.22;2.75;;;;;;;-148.56;100.00;61375.16;5079181;27;20027;-36
2022/06/03 12:30:57;;;;;;;6.15;2.53;;;;;;;-148.56;100.00;61375.16;5091869;27;20028;-34
2022/06/03 12:33:26;;;;;;;4.50;2.60;;;;;;;-148.56;100.00;61375.16;5105396;27;20083;-32